Skip Navigation Links Skip Navigation Links

Current Weather

Centralia Muni, Centralia, Ill.

For information only: do not use for flight planning or navigation.
Latest weather
Observation time Thursday, January 27, 2022 10:55 PM CST
Local time Thursday, January 27, 2022 11:24 PM CST
Flight conditions Visual Meteorological Conditions
Winds
Wind direction Northwest (310°)
Wind speed 6 mph
Visibility 10 mi.
Sky condition
Ceiling 3,600 ft. overcast
Cloud layer scattered clouds 3,000 ft.
Cloud layer overcast 3,600 ft.
Temperature 34°F
Dewpoint 28°F
Altimeter 30.25 in.Hg
Derived measurements
Relative humidity 76%
Wind chill 29°F
Density altitude -1448 ft.
Remarks
Fully automated report.
Automated weather observing station with precipitation discriminator.
METAR KENL 280455Z AUTO 31005KT 10SM SCT030 OVC036 01/M02 A3025 RMK AO2 T00121025

Settings

Location code

InnerDrive.Weather 4.0.6770.0 Release CLR 4.0.30319.42000
Copyright ©2018 Inner Drive Technology. All rights reserved. Portions Copyright ©1986-2018 David Braverman.

Find weather

Site navigation


Skip Navigation Links

Place info

Page info

PayPal - The safer, easier way to pay online!

Return home.

Copyright ©2022 Inner Drive Technology. Purveyors of fine, hand-crafted computer software. Page printed 2022-01-28T05:24:28 UTC.